Time;durP1;ratioP1;P1;durP2;ratioP2;P2;SDS_P1;SDS_P2;PMS_P1;PMS_P2;Temp;Humidity;BMP_temperature;BMP_pressure;BME280_temperature;BME280_humidity;BME280_pressure;Samples;Min_cycle;Max_cycle;Signal;HPM_P1;HPM_P2
2021/05/23 00:01:04;;;;;;;1.90;1.50;;;9.00;99.90;;;;;;493758;241;27967;-74
2021/05/23 00:03:05;;;;;;;1.80;1.70;;;9.00;99.90;;;;;;494066;241;28045;-74
2021/05/23 00:05:07;;;;;;;2.97;1.67;;;9.00;99.90;;;;;;494100;241;28409;-74
2021/05/23 00:07:08;;;;;;;4.83;1.70;;;9.00;99.90;;;;;;494127;241;28220;-75
2021/05/23 00:09:09;;;;;;;3.63;1.70;;;9.00;99.90;;;;;;494000;241;27971;-74
2021/05/23 00:11:10;;;;;;;6.53;1.60;;;9.00;99.90;;;;;;494032;241;27896;-74
2021/05/23 00:13:12;;;;;;;1.73;1.57;;;9.00;99.90;;;;;;494035;237;27930;-74
2021/05/23 00:15:13;;;;;;;2.27;1.70;;;8.90;99.90;;;;;;493804;241;27952;-74
2021/05/23 00:17:14;;;;;;;1.40;1.30;;;8.90;99.90;;;;;;494049;237;28209;-75
2021/05/23 00:19:15;;;;;;;1.90;1.63;;;8.90;99.90;;;;;;494050;241;28160;-74
2021/05/23 00:21:17;;;;;;;2.13;1.30;;;8.80;99.90;;;;;;494056;241;28066;-74
2021/05/23 00:23:18;;;;;;;1.50;1.40;;;8.80;99.90;;;;;;494054;241;28363;-74
2021/05/23 00:25:19;;;;;;;2.20;1.60;;;8.90;99.90;;;;;;494068;241;28356;-74
2021/05/23 00:27:20;;;;;;;1.70;1.60;;;8.80;99.90;;;;;;494067;241;28045;-74
2021/05/23 00:29:22;;;;;;;1.60;1.40;;;8.80;99.90;;;;;;494084;240;27831;-73
2021/05/23 00:31:23;;;;;;;2.13;1.40;;;8.80;99.90;;;;;;494083;241;27981;-74
2021/05/23 00:33:24;;;;;;;1.20;1.20;;;8.80;99.90;;;;;;494127;241;28042;-74
2021/05/23 00:35:25;;;;;;;3.37;1.50;;;8.80;99.90;;;;;;494154;241;28013;-74
2021/05/23 00:37:27;;;;;;;1.77;1.43;;;8.80;99.90;;;;;;494079;237;27952;-74
2021/05/23 00:39:28;;;;;;;1.30;1.20;;;8.80;99.90;;;;;;494106;241;27942;-74
2021/05/23 00:41:29;;;;;;;2.60;1.57;;;8.80;99.90;;;;;;494185;241;27723;-74
2021/05/23 00:43:30;;;;;;;2.40;1.50;;;8.70;99.90;;;;;;494148;241;27851;-74
2021/05/23 00:45:32;;;;;;;2.70;1.67;;;8.70;99.90;;;;;;494158;241;27787;-74
2021/05/23 00:47:33;;;;;;;1.70;1.60;;;8.60;99.90;;;;;;494019;241;27984;-74
2021/05/23 00:49:37;;;;;;;1.83;1.70;;;8.60;99.90;;;;;;494104;241;27965;-74
2021/05/23 00:51:35;;;;;;;1.43;1.33;;;8.60;99.90;;;;;;493916;241;28050;-73
2021/05/23 00:53:37;;;;;;;1.70;1.40;;;8.50;99.90;;;;;;494088;239;28348;-74
2021/05/23 00:55:38;;;;;;;1.47;1.30;;;8.50;99.90;;;;;;494154;241;28508;-75
2021/05/23 00:57:39;;;;;;;1.47;1.37;;;8.50;99.90;;;;;;494147;237;28103;-74
2021/05/23 00:59:41;;;;;;;2.90;1.53;;;8.50;99.90;;;;;;494187;241;28480;-73
2021/05/23 01:01:42;;;;;;;1.37;1.27;;;8.50;99.90;;;;;;494164;241;28485;-74
2021/05/23 01:03:43;;;;;;;1.87;1.70;;;8.40;99.90;;;;;;494150;241;28478;-74
2021/05/23 01:05:44;;;;;;;3.23;1.50;;;8.50;99.90;;;;;;494185;241;28110;-73
2021/05/23 01:07:45;;;;;;;1.77;1.60;;;8.50;99.90;;;;;;494054;241;28071;-78
2021/05/23 01:09:47;;;;;;;1.67;1.30;;;8.50;99.90;;;;;;494076;241;27716;-74
2021/05/23 01:11:48;;;;;;;2.40;1.30;;;8.60;99.90;;;;;;494118;241;27980;-74
2021/05/23 01:13:49;;;;;;;2.40;1.60;;;8.50;99.90;;;;;;493888;241;27685;-74
2021/05/23 01:15:50;;;;;;;3.23;1.70;;;8.60;99.90;;;;;;493846;241;28221;-74
2021/05/23 01:17:52;;;;;;;1.83;1.50;;;8.50;99.90;;;;;;494130;241;28076;-75
2021/05/23 01:19:53;;;;;;;2.17;1.47;;;8.50;99.90;;;;;;494183;241;28001;-74
2021/05/23 01:21:54;;;;;;;2.10;1.60;;;8.40;99.90;;;;;;494096;241;28030;-75
2021/05/23 01:23:55;;;;;;;1.70;1.60;;;8.30;99.90;;;;;;494139;241;28019;-74
2021/05/23 01:26:02;;;;;;;1.60;1.50;;;8.30;99.90;;;;;;494096;241;27513;-74
2021/05/23 01:27:58;;;;;;;2.30;1.60;;;8.20;99.90;;;;;;493623;241;27690;-74
2021/05/23 01:29:59;;;;;;;3.47;1.60;;;8.20;99.90;;;;;;494177;241;27816;-74
2021/05/23 01:32:00;;;;;;;1.83;1.30;;;8.20;99.90;;;;;;494178;241;27857;-73
2021/05/23 01:34:01;;;;;;;3.50;1.50;;;8.20;99.90;;;;;;494102;241;29322;-74
2021/05/23 01:36:03;;;;;;;3.00;1.73;;;8.20;99.90;;;;;;494110;241;28454;-74
2021/05/23 01:38:04;;;;;;;4.83;1.90;;;8.10;99.90;;;;;;494120;241;28061;-74
2021/05/23 01:40:05;;;;;;;2.90;1.93;;;8.10;99.90;;;;;;494124;241;28430;-75
2021/05/23 01:42:06;;;;;;;3.37;1.60;;;8.10;99.90;;;;;;494105;241;28459;-74
2021/05/23 01:44:08;;;;;;;1.80;1.50;;;8.00;99.90;;;;;;494186;241;28011;-74
2021/05/23 01:46:09;;;;;;;1.50;1.40;;;8.00;99.90;;;;;;494171;241;28120;-74
2021/05/23 01:48:10;;;;;;;5.20;2.00;;;8.00;99.90;;;;;;494117;237;28002;-74
2021/05/23 01:50:11;;;;;;;2.40;1.50;;;7.90;99.90;;;;;;493963;241;27591;-74
2021/05/23 01:52:13;;;;;;;3.77;1.43;;;7.90;99.90;;;;;;494044;241;27869;-73
2021/05/23 01:54:14;;;;;;;1.87;1.53;;;7.90;99.90;;;;;;494075;241;28037;-74
2021/05/23 01:56:15;;;;;;;2.87;1.47;;;7.90;99.90;;;;;;494079;237;27752;-74
2021/05/23 01:58:16;;;;;;;2.07;1.50;;;7.90;99.90;;;;;;494048;241;28005;-74
2021/05/23 02:00:18;;;;;;;2.40;1.50;;;7.80;99.90;;;;;;494152;241;27879;-74
2021/05/23 02:02:19;;;;;;;3.10;1.83;;;7.90;99.90;;;;;;494097;241;28073;-74
2021/05/23 02:04:20;;;;;;;2.80;1.60;;;7.90;99.90;;;;;;494137;241;27943;-74
2021/05/23 02:06:21;;;;;;;1.50;1.40;;;7.80;99.90;;;;;;494116;237;27817;-75
2021/05/23 02:08:23;;;;;;;2.40;1.70;;;7.80;99.90;;;;;;494018;241;28038;-73
2021/05/23 02:10:24;;;;;;;1.80;1.70;;;7.80;99.90;;;;;;494100;241;28501;-74
2021/05/23 02:12:25;;;;;;;6.20;1.67;;;7.80;99.90;;;;;;494139;241;28445;-74
2021/05/23 02:14:26;;;;;;;4.00;1.43;;;7.90;99.90;;;;;;494074;241;28031;-73
2021/05/23 02:16:28;;;;;;;1.60;1.50;;;7.80;99.90;;;;;;494055;237;28198;-74
2021/05/23 02:18:30;;;;;;;1.73;1.57;;;7.90;99.90;;;;;;494081;241;29365;-74
2021/05/23 02:20:30;;;;;;;3.10;1.83;;;8.00;99.90;;;;;;494053;237;28310;-74
2021/05/23 02:22:31;;;;;;;2.80;1.67;;;8.00;99.90;;;;;;494129;237;28058;-75
2021/05/23 02:24:33;;;;;;;3.80;1.50;;;8.00;99.90;;;;;;494075;241;27778;-74
2021/05/23 02:26:34;;;;;;;1.70;1.50;;;8.00;99.90;;;;;;494151;241;28062;-74
2021/05/23 02:28:35;;;;;;;2.10;1.40;;;8.00;99.90;;;;;;494102;241;27556;-74
2021/05/23 02:30:36;;;;;;;4.30;1.93;;;8.00;99.90;;;;;;494160;241;27968;-74
2021/05/23 02:32:38;;;;;;;2.50;1.47;;;8.10;99.90;;;;;;494169;241;28066;-74
2021/05/23 02:34:39;;;;;;;1.53;1.43;;;8.00;99.90;;;;;;494153;241;27924;-73
2021/05/23 02:36:40;;;;;;;1.40;1.30;;;8.00;99.90;;;;;;494169;241;28067;-74
2021/05/23 02:38:41;;;;;;;2.10;1.73;;;8.00;99.90;;;;;;494094;241;27954;-74
2021/05/23 02:40:43;;;;;;;1.40;1.30;;;8.00;99.90;;;;;;494139;241;27986;-74
2021/05/23 02:42:44;;;;;;;1.30;1.20;;;8.10;99.90;;;;;;494094;237;28152;-74
2021/05/23 02:44:45;;;;;;;1.43;1.33;;;8.10;99.90;;;;;;494092;241;28072;-74
2021/05/23 02:46:46;;;;;;;1.63;1.53;;;8.00;99.90;;;;;;494093;237;27991;-74
2021/05/23 02:48:48;;;;;;;2.63;1.73;;;8.00;99.90;;;;;;494064;241;28431;-74
2021/05/23 02:50:49;;;;;;;3.23;1.53;;;8.00;99.90;;;;;;494033;241;28408;-74
2021/05/23 02:52:50;;;;;;;3.47;1.80;;;8.00;99.90;;;;;;494065;241;28413;-75
2021/05/23 02:54:51;;;;;;;2.40;1.63;;;8.00;99.90;;;;;;494050;241;28372;-74
2021/05/23 02:56:53;;;;;;;2.97;1.73;;;8.00;99.90;;;;;;494136;240;28340;-75
2021/05/23 02:58:54;;;;;;;3.53;1.77;;;8.00;99.90;;;;;;494144;241;28500;-74
2021/05/23 03:00:55;;;;;;;1.77;1.60;;;8.00;99.90;;;;;;494190;241;27953;-73
2021/05/23 03:02:56;;;;;;;4.30;1.77;;;8.10;99.90;;;;;;494069;241;28110;-74
2021/05/23 03:04:58;;;;;;;1.77;1.67;;;8.10;99.90;;;;;;494074;237;28395;-74
2021/05/23 03:06:59;;;;;;;7.10;2.10;;;8.10;99.90;;;;;;494087;241;27755;-73
2021/05/23 03:09:00;;;;;;;4.10;1.90;;;8.10;99.90;;;;;;494101;241;27956;-74
2021/05/23 03:11:01;;;;;;;2.53;1.43;;;8.10;99.90;;;;;;494074;241;28027;-74
2021/05/23 03:13:03;;;;;;;2.47;1.80;;;8.00;99.90;;;;;;494072;241;27983;-74
2021/05/23 03:15:04;;;;;;;2.03;1.80;;;8.00;99.90;;;;;;494155;241;27832;-74
2021/05/23 03:17:07;;;;;;;2.63;1.80;;;8.00;99.90;;;;;;494147;241;27868;-75
2021/05/23 03:19:06;;;;;;;3.60;2.00;;;8.00;99.90;;;;;;493970;241;27589;-74
2021/05/23 03:21:08;;;;;;;3.67;1.97;;;8.10;99.90;;;;;;494069;241;27966;-74
2021/05/23 03:23:09;;;;;;;2.83;2.33;;;8.00;99.90;;;;;;494085;241;28303;-74
2021/05/23 03:25:10;;;;;;;2.93;2.20;;;8.00;99.90;;;;;;494005;241;28050;-74
2021/05/23 03:27:11;;;;;;;1.70;1.60;;;8.00;99.90;;;;;;494083;241;28413;-74
2021/05/23 03:29:13;;;;;;;3.33;1.87;;;8.00;99.90;;;;;;494173;241;28462;-74
2021/05/23 03:31:14;;;;;;;4.67;1.83;;;8.00;99.90;;;;;;494180;241;28437;-75
2021/05/23 03:33:15;;;;;;;2.43;1.80;;;8.00;99.90;;;;;;494182;237;28759;-75
2021/05/23 03:35:16;;;;;;;4.67;2.20;;;8.00;99.90;;;;;;494078;241;28623;-74
2021/05/23 03:37:18;;;;;;;3.60;2.10;;;8.00;99.90;;;;;;494078;241;28346;-75
2021/05/23 03:39:19;;;;;;;7.03;2.63;;;8.00;99.90;;;;;;494021;241;27937;-74
2021/05/23 03:41:20;;;;;;;2.93;1.90;;;7.90;99.90;;;;;;494058;241;27625;-74
2021/05/23 03:43:21;;;;;;;4.43;2.20;;;7.80;99.90;;;;;;494066;241;27921;-74
2021/05/23 03:45:23;;;;;;;3.07;2.30;;;7.80;99.90;;;;;;494103;241;27737;-74
2021/05/23 03:47:24;;;;;;;2.20;2.00;;;7.70;99.90;;;;;;494125;241;28076;-74
2021/05/23 03:49:25;;;;;;;5.13;2.13;;;7.80;99.90;;;;;;494156;241;27702;-74
2021/05/23 03:51:26;;;;;;;4.10;2.20;;;7.70;99.90;;;;;;494133;241;27986;-74
2021/05/23 03:53:28;;;;;;;3.13;2.10;;;7.70;99.90;;;;;;494137;241;27942;-73
2021/05/23 03:55:29;;;;;;;2.57;1.80;;;7.70;99.90;;;;;;494140;241;28001;-74
2021/05/23 03:57:30;;;;;;;1.50;1.40;;;7.70;99.90;;;;;;494083;241;28404;-74
2021/05/23 03:59:31;;;;;;;2.50;1.97;;;7.80;99.90;;;;;;494076;241;28035;-74
2021/05/23 04:01:33;;;;;;;3.03;2.00;;;7.80;99.90;;;;;;494123;241;28111;-74
2021/05/23 04:03:34;;;;;;;4.73;2.20;;;7.80;99.90;;;;;;494081;241;27826;-74
2021/05/23 04:05:35;;;;;;;2.40;2.10;;;7.80;99.90;;;;;;494068;239;28466;-73
2021/05/23 04:07:36;;;;;;;2.90;2.20;;;7.90;99.90;;;;;;494050;241;28534;-74
2021/05/23 04:09:38;;;;;;;3.13;2.07;;;7.80;99.90;;;;;;493879;241;28426;-74
2021/05/23 04:11:42;;;;;;;2.60;1.70;;;7.90;99.90;;;;;;494031;241;28598;-74
2021/05/23 04:13:41;;;;;;;3.03;2.00;;;7.90;99.90;;;;;;493772;241;28272;-74
2021/05/23 04:15:41;;;;;;;1.93;1.83;;;8.00;99.90;;;;;;494032;241;27932;-74
2021/05/23 04:17:43;;;;;;;3.70;2.20;;;7.90;99.90;;;;;;494167;241;27973;-74
2021/05/23 04:19:44;;;;;;;3.87;1.73;;;7.90;99.90;;;;;;494189;241;27993;-74
2021/05/23 04:21:45;;;;;;;3.40;2.37;;;7.90;99.90;;;;;;494129;241;27956;-73
2021/05/23 04:23:46;;;;;;;3.53;2.20;;;7.90;99.90;;;;;;494145;241;27937;-74
2021/05/23 04:25:48;;;;;;;2.93;2.27;;;7.80;99.90;;;;;;494188;241;28064;-74
2021/05/23 04:27:49;;;;;;;5.40;2.17;;;7.90;99.90;;;;;;494057;237;28183;-74
2021/05/23 04:29:50;;;;;;;4.03;1.97;;;8.00;99.90;;;;;;494067;241;28046;-74
2021/05/23 04:31:51;;;;;;;3.47;2.23;;;8.00;99.90;;;;;;494063;241;27895;-74
2021/05/23 04:33:53;;;;;;;7.20;2.00;;;8.00;99.90;;;;;;494125;241;28039;-74
2021/05/23 04:35:54;;;;;;;5.23;1.87;;;7.90;99.90;;;;;;494134;239;27857;-74
2021/05/23 04:37:57;;;;;;;7.00;1.80;;;7.90;99.90;;;;;;494055;241;28010;-74
2021/05/23 04:39:56;;;;;;;2.20;1.87;;;7.90;99.90;;;;;;493849;241;27605;-74
2021/05/23 04:41:58;;;;;;;3.23;1.60;;;7.90;99.90;;;;;;494127;237;28018;-74
2021/05/23 04:43:59;;;;;;;1.80;1.70;;;8.00;99.90;;;;;;494099;241;28431;-74
2021/05/23 04:46:01;;;;;;;2.43;2.00;;;8.00;99.90;;;;;;494076;241;28090;-74
2021/05/23 04:48:01;;;;;;;3.17;2.00;;;8.00;99.90;;;;;;494055;241;28438;-74
2021/05/23 04:50:03;;;;;;;5.07;1.93;;;8.10;99.90;;;;;;494097;241;28443;-74
2021/05/23 04:52:04;;;;;;;2.23;2.03;;;8.00;99.90;;;;;;494162;241;28453;-74
2021/05/23 04:54:05;;;;;;;1.70;1.60;;;8.00;99.90;;;;;;494156;241;27481;-74
2021/05/23 04:56:06;;;;;;;3.33;2.00;;;8.00;99.90;;;;;;494166;241;27990;-74
2021/05/23 04:58:08;;;;;;;2.73;2.40;;;8.00;99.90;;;;;;494139;241;28028;-74
2021/05/23 05:00:09;;;;;;;2.00;1.80;;;8.10;99.90;;;;;;494167;241;27721;-74
2021/05/23 05:02:10;;;;;;;6.23;1.90;;;8.10;99.90;;;;;;494135;241;27512;-75
2021/05/23 05:04:11;;;;;;;3.17;2.10;;;8.20;99.90;;;;;;494166;241;27927;-74
2021/05/23 05:06:13;;;;;;;3.00;1.87;;;8.10;99.90;;;;;;494151;241;28002;-74
2021/05/23 05:08:14;;;;;;;3.23;2.17;;;8.10;99.90;;;;;;494190;241;27588;-74
2021/05/23 05:10:15;;;;;;;4.07;2.07;;;8.20;99.90;;;;;;494077;241;27994;-75
2021/05/23 05:12:16;;;;;;;2.60;1.80;;;8.20;99.90;;;;;;494058;239;28096;-75
2021/05/23 05:14:18;;;;;;;2.10;2.00;;;8.20;99.90;;;;;;494089;241;28027;-74
2021/05/23 05:16:19;;;;;;;5.00;1.90;;;8.20;99.90;;;;;;494089;241;28130;-74
2021/05/23 05:18:20;;;;;;;1.80;1.70;;;8.20;99.90;;;;;;494084;241;27967;-74
2021/05/23 05:20:21;;;;;;;3.90;1.80;;;8.20;99.90;;;;;;494078;241;27737;-74
2021/05/23 05:22:23;;;;;;;13.23;2.10;;;8.20;99.90;;;;;;494153;237;29360;-74
2021/05/23 05:24:24;;;;;;;2.90;2.23;;;8.20;99.90;;;;;;494075;241;28479;-74
2021/05/23 05:26:25;;;;;;;4.03;2.00;;;8.20;99.90;;;;;;494147;241;28354;-74
2021/05/23 05:28:26;;;;;;;4.83;2.47;;;8.20;99.90;;;;;;494171;241;28527;-73
2021/05/23 05:30:28;;;;;;;5.57;2.30;;;8.20;99.90;;;;;;494176;241;28039;-75
2021/05/23 05:32:29;;;;;;;5.17;2.20;;;8.10;99.90;;;;;;494167;241;28005;-73
2021/05/23 05:34:30;;;;;;;3.60;2.33;;;8.20;99.90;;;;;;494170;241;28063;-74
2021/05/23 05:36:31;;;;;;;2.87;1.87;;;8.20;99.90;;;;;;494167;241;28164;-74
2021/05/23 05:38:33;;;;;;;4.77;2.67;;;8.20;99.90;;;;;;494139;241;27830;-74
2021/05/23 05:40:34;;;;;;;3.50;2.23;;;8.20;99.90;;;;;;494076;241;28059;-74
2021/05/23 05:42:35;;;;;;;7.53;2.40;;;8.20;99.90;;;;;;494085;241;27938;-74
2021/05/23 05:44:36;;;;;;;6.50;2.27;;;8.20;99.90;;;;;;494152;241;27928;-74
2021/05/23 05:46:38;;;;;;;5.10;2.40;;;8.30;99.90;;;;;;494212;241;27656;-74
2021/05/23 05:48:39;;;;;;;3.93;2.30;;;8.30;99.90;;;;;;494108;241;27996;-74
2021/05/23 05:50:40;;;;;;;5.50;3.00;;;8.30;99.90;;;;;;494093;241;27859;-74
2021/05/23 05:52:41;;;;;;;4.17;2.80;;;8.30;99.90;;;;;;494020;237;27958;-74
2021/05/23 05:54:43;;;;;;;4.50;2.63;;;8.20;99.90;;;;;;493800;241;27986;-73
2021/05/23 05:56:44;;;;;;;3.70;3.00;;;8.20;99.90;;;;;;494108;241;28043;-74
2021/05/23 05:58:45;;;;;;;5.90;2.70;;;8.30;99.90;;;;;;494103;241;28404;-74
2021/05/23 06:00:46;;;;;;;2.40;2.20;;;8.30;99.90;;;;;;494108;237;28555;-75
2021/05/23 06:02:48;;;;;;;2.23;2.03;;;8.40;99.90;;;;;;494175;241;28512;-74
2021/05/23 06:04:50;;;;;;;2.63;2.43;;;8.50;99.90;;;;;;494081;241;28460;-74
2021/05/23 06:06:50;;;;;;;6.00;2.70;;;8.60;99.90;;;;;;494006;241;28234;-74
2021/05/23 06:08:51;;;;;;;4.33;2.53;;;8.50;99.90;;;;;;494088;241;27948;-74
2021/05/23 06:10:53;;;;;;;3.97;2.83;;;8.60;99.90;;;;;;494094;241;27967;-74
2021/05/23 06:12:54;;;;;;;6.97;3.00;;;8.60;99.90;;;;;;494073;241;28052;-74
2021/05/23 06:14:55;;;;;;;2.50;2.30;;;8.50;99.90;;;;;;494188;241;28104;-74
2021/05/23 06:16:56;;;;;;;4.40;2.73;;;8.60;99.90;;;;;;494089;241;27975;-74
2021/05/23 06:18:58;;;;;;;2.33;2.20;;;8.50;99.90;;;;;;494125;237;27919;-74
2021/05/23 06:20:59;;;;;;;4.67;2.80;;;8.70;99.90;;;;;;494172;241;27997;-74
2021/05/23 06:23:00;;;;;;;5.33;2.60;;;8.80;99.90;;;;;;494165;241;27628;-74
2021/05/23 06:25:01;;;;;;;8.33;3.20;;;8.80;99.90;;;;;;494105;241;27630;-75
2021/05/23 06:27:03;;;;;;;2.63;2.43;;;8.80;99.90;;;;;;494046;241;27951;-74
2021/05/23 06:29:04;;;;;;;3.80;2.53;;;8.70;99.90;;;;;;494083;241;27705;-75
2021/05/23 06:31:05;;;;;;;3.07;2.03;;;8.90;99.90;;;;;;494159;241;27632;-74
2021/05/23 06:33:06;;;;;;;3.77;2.60;;;8.90;99.90;;;;;;494155;241;28046;-74
2021/05/23 06:35:09;;;;;;;3.00;2.70;;;9.00;99.90;;;;;;494119;241;27971;-74
2021/05/23 06:37:09;;;;;;;3.33;2.50;;;9.10;99.90;;;;;;493961;240;29320;-74
2021/05/23 06:39:10;;;;;;;6.27;2.80;;;9.00;99.90;;;;;;494123;241;28806;-73
2021/05/23 06:41:11;;;;;;;4.00;2.30;;;8.90;99.90;;;;;;494158;241;28147;-74
2021/05/23 06:43:13;;;;;;;2.60;2.30;;;9.00;99.90;;;;;;494135;241;28272;-74
2021/05/23 06:45:14;;;;;;;3.20;2.70;;;9.10;99.90;;;;;;494133;241;28507;-74
2021/05/23 06:47:15;;;;;;;2.50;2.30;;;9.10;99.90;;;;;;494139;241;27992;-73
2021/05/23 06:49:16;;;;;;;4.50;2.90;;;9.00;99.90;;;;;;494141;241;27925;-74
2021/05/23 06:51:18;;;;;;;2.53;2.33;;;9.00;99.90;;;;;;494164;241;28067;-75
2021/05/23 06:53:19;;;;;;;2.53;2.23;;;9.00;99.90;;;;;;494064;241;28065;-74
2021/05/23 06:55:20;;;;;;;4.10;2.43;;;9.00;99.90;;;;;;494081;241;28020;-74
2021/05/23 06:57:21;;;;;;;4.13;2.03;;;9.10;99.90;;;;;;494084;237;27709;-74
2021/05/23 06:59:26;;;;;;;2.20;2.03;;;9.20;99.90;;;;;;494153;241;27947;-74
2021/05/23 07:01:24;;;;;;;3.00;2.40;;;9.20;99.90;;;;;;493881;241;27956;-74
2021/05/23 07:03:25;;;;;;;2.73;2.17;;;9.20;99.90;;;;;;494171;241;27839;-74
2021/05/23 07:05:26;;;;;;;2.93;2.40;;;9.20;99.90;;;;;;494072;241;27948;-74
2021/05/23 07:07:28;;;;;;;7.70;3.00;;;9.20;99.90;;;;;;494045;241;27918;-74
2021/05/23 07:09:29;;;;;;;5.73;2.83;;;9.10;99.90;;;;;;494035;241;28407;-75
2021/05/23 07:11:30;;;;;;;5.70;2.70;;;9.10;99.90;;;;;;494056;241;28633;-74
2021/05/23 07:13:31;;;;;;;4.40;2.20;;;9.20;99.90;;;;;;494096;241;28370;-74
2021/05/23 07:15:33;;;;;;;4.13;2.50;;;9.30;99.90;;;;;;494134;241;28402;-74
2021/05/23 07:17:34;;;;;;;2.30;2.10;;;9.50;99.90;;;;;;494094;241;28501;-74
2021/05/23 07:19:35;;;;;;;6.53;2.77;;;9.60;99.90;;;;;;494097;241;27859;-75
2021/05/23 07:21:36;;;;;;;2.70;2.50;;;9.60;99.90;;;;;;494060;241;27977;-75
2021/05/23 07:23:38;;;;;;;2.53;2.07;;;9.70;99.90;;;;;;494059;239;27932;-75
2021/05/23 07:25:39;;;;;;;6.23;2.20;;;9.80;99.90;;;;;;494160;241;28095;-74
2021/05/23 07:27:40;;;;;;;3.60;2.10;;;9.90;99.90;;;;;;494159;241;27840;-75
2021/05/23 07:29:41;;;;;;;1.70;1.60;;;9.90;99.90;;;;;;494056;241;28054;-74
2021/05/23 07:31:43;;;;;;;4.40;2.30;;;9.90;99.90;;;;;;494094;241;28035;-74
2021/05/23 07:33:44;;;;;;;4.70;2.50;;;9.90;99.90;;;;;;494085;241;27965;-75
2021/05/23 07:35:45;;;;;;;5.73;2.57;;;9.90;99.90;;;;;;494169;241;28013;-74
2021/05/23 07:37:46;;;;;;;4.87;2.27;;;9.90;99.90;;;;;;494151;241;28061;-74
2021/05/23 07:39:48;;;;;;;2.60;2.40;;;9.90;99.90;;;;;;494128;241;28107;-75
2021/05/23 07:41:49;;;;;;;6.63;2.17;;;9.70;99.90;;;;;;494168;239;27827;-74
2021/05/23 07:43:50;;;;;;;3.70;2.47;;;9.70;99.90;;;;;;494138;241;28575;-75
2021/05/23 07:45:52;;;;;;;2.90;2.30;;;9.60;99.90;;;;;;494175;241;28203;-74
2021/05/23 07:47:53;;;;;;;3.10;2.10;;;9.60;99.90;;;;;;494169;241;28396;-76
2021/05/23 07:49:54;;;;;;;5.80;2.40;;;9.60;99.90;;;;;;494045;237;29162;-75
2021/05/23 07:51:55;;;;;;;2.13;1.93;;;9.50;99.90;;;;;;494024;241;28367;-74
2021/05/23 07:53:56;;;;;;;2.00;1.83;;;9.60;99.90;;;;;;494081;241;28452;-74
2021/05/23 07:55:58;;;;;;;4.83;3.50;;;9.60;99.90;;;;;;494179;241;28450;-75
2021/05/23 07:57:59;;;;;;;3.03;2.00;;;9.90;99.90;;;;;;494165;237;28024;-75
2021/05/23 08:00:00;;;;;;;4.00;1.93;;;10.10;99.90;;;;;;494191;241;28206;-75
2021/05/23 08:02:01;;;;;;;3.17;2.20;;;10.30;99.90;;;;;;494162;241;28138;-75
2021/05/23 08:04:03;;;;;;;4.00;2.30;;;10.30;99.90;;;;;;494072;241;27962;-75
2021/05/23 08:06:05;;;;;;;3.47;1.73;;;10.30;99.90;;;;;;493995;241;28449;-75
2021/05/23 08:08:06;;;;;;;1.77;1.67;;;;;;;;;;493937;241;28203;-75
2021/05/23 08:10:07;;;;;;;3.50;1.80;;;10.50;99.90;;;;;;494121;241;27278;-75
2021/05/23 08:12:09;;;;;;;3.43;2.00;;;10.80;99.90;;;;;;494150;241;28415;-75
2021/05/23 08:14:10;;;;;;;2.60;1.93;;;10.90;99.90;;;;;;494098;241;28147;-74
2021/05/23 08:16:11;;;;;;;2.37;2.10;;;11.00;99.90;;;;;;494178;241;28076;-74
2021/05/23 08:18:16;;;;;;;4.13;2.17;;;10.90;99.90;;;;;;494208;241;28148;-75
2021/05/23 08:20:14;;;;;;;3.70;2.20;;;10.90;99.90;;;;;;493910;237;28316;-73
2021/05/23 08:22:15;;;;;;;3.23;2.17;;;10.90;99.90;;;;;;494094;241;28222;-74
2021/05/23 08:24:16;;;;;;;7.30;2.30;;;10.90;99.90;;;;;;494070;241;28897;-75
2021/05/23 08:26:17;;;;;;;2.97;1.90;;;11.10;99.90;;;;;;494082;241;28461;-75
2021/05/23 08:28:19;;;;;;;3.73;2.07;;;11.00;99.90;;;;;;494153;241;28810;-76
2021/05/23 08:30:20;;;;;;;4.10;2.27;;;10.70;99.90;;;;;;494140;241;28763;-75
2021/05/23 08:32:23;;;;;;;3.37;2.30;;;10.60;99.90;;;;;;494077;241;28906;-75
2021/05/23 08:34:22;;;;;;;4.10;2.10;;;10.70;99.90;;;;;;493997;241;28858;-74
2021/05/23 08:36:24;;;;;;;7.67;2.37;;;10.70;99.90;;;;;;494103;241;28374;-74
2021/05/23 08:38:25;;;;;;;6.07;2.07;;;10.90;99.90;;;;;;494205;241;28321;-75
2021/05/23 08:40:26;;;;;;;4.20;2.37;;;10.80;99.90;;;;;;494196;241;28125;-74
2021/05/23 08:42:27;;;;;;;3.23;2.10;;;10.90;99.90;;;;;;493672;241;28856;-75
2021/05/23 08:44:30;;;;;;;3.77;2.30;;;;;;;;;;493891;241;28355;-74
2021/05/23 08:46:32;;;;;;;8.40;3.13;;;11.00;99.90;;;;;;494058;241;27435;-75
2021/05/23 08:48:33;;;;;;;4.43;2.40;;;11.50;99.90;;;;;;494052;237;28380;-75
2021/05/23 08:50:34;;;;;;;4.90;2.70;;;11.70;99.90;;;;;;494059;241;28267;-74
2021/05/23 08:52:37;;;;;;;3.67;2.00;;;;;;;;;;494089;241;28287;-75
2021/05/23 08:54:41;;;;;;;3.80;1.87;;;11.80;99.90;;;;;;494204;241;26921;-75
2021/05/23 08:56:42;;;;;;;4.37;2.23;;;11.70;99.90;;;;;;494180;241;28707;-74
2021/05/23 08:58:44;;;;;;;3.17;1.97;;;11.60;99.90;;;;;;494059;241;28290;-74
2021/05/23 09:00:45;;;;;;;4.70;2.00;;;11.50;99.90;;;;;;494102;241;28186;-74
2021/05/23 09:02:46;;;;;;;4.70;1.73;;;11.30;99.90;;;;;;494112;241;28219;-75
2021/05/23 09:04:47;;;;;;;5.27;2.50;;;11.20;99.90;;;;;;494114;241;28158;-74
2021/05/23 09:06:49;;;;;;;4.10;1.67;;;11.40;99.90;;;;;;494074;241;28259;-75
2021/05/23 09:08:50;;;;;;;3.27;1.90;;;11.50;99.90;;;;;;494109;241;28418;-74
2021/05/23 09:10:51;;;;;;;4.57;1.90;;;11.50;99.90;;;;;;494067;241;28366;-74
2021/05/23 09:12:54;;;;;;;2.80;1.70;;;;;;;;;;494141;237;28225;-75
2021/05/23 09:14:55;;;;;;;1.40;1.30;;;11.90;99.90;;;;;;494156;241;26725;-74
2021/05/23 09:16:56;;;;;;;3.77;1.70;;;12.10;99.90;;;;;;494149;241;28211;-74
2021/05/23 09:18:57;;;;;;;6.33;2.00;;;12.20;99.90;;;;;;494114;241;28279;-75
2021/05/23 09:20:58;;;;;;;2.60;1.90;;;12.20;99.90;;;;;;494147;237;28412;-76
2021/05/23 09:23:01;;;;;;;2.20;1.57;;;12.30;99.90;;;;;;494144;241;28388;-74
2021/05/23 09:25:01;;;;;;;7.13;1.63;;;12.40;99.90;;;;;;494091;241;28410;-75
2021/05/23 09:27:02;;;;;;;2.20;1.40;;;12.70;99.90;;;;;;493941;241;28344;-75
2021/05/23 09:29:03;;;;;;;5.40;1.83;;;12.70;99.90;;;;;;494016;241;29268;-75
2021/05/23 09:31:05;;;;;;;2.50;1.67;;;12.60;99.90;;;;;;493927;241;29315;-75
2021/05/23 09:33:07;;;;;;;4.83;2.00;;;12.30;99.90;;;;;;494029;241;28954;-73
2021/05/23 09:35:07;;;;;;;2.20;1.33;;;12.10;99.90;;;;;;494012;241;28541;-76
2021/05/23 09:37:09;;;;;;;2.10;1.60;;;12.10;99.90;;;;;;494060;241;28547;-74
2021/05/23 09:39:10;;;;;;;3.47;1.60;;;12.20;99.90;;;;;;494121;241;28798;-74
2021/05/23 09:41:11;;;;;;;1.90;1.50;;;12.10;99.90;;;;;;494103;237;28422;-74
2021/05/23 09:43:12;;;;;;;4.77;1.77;;;11.90;99.90;;;;;;494122;237;28198;-74
2021/05/23 09:45:14;;;;;;;2.57;1.50;;;11.90;99.90;;;;;;494146;241;28313;-73
2021/05/23 09:47:15;;;;;;;1.40;1.30;;;11.90;99.90;;;;;;494125;241;28791;-73
2021/05/23 09:49:16;;;;;;;2.70;1.40;;;12.00;99.90;;;;;;494116;241;28276;-73
2021/05/23 09:51:18;;;;;;;5.43;1.80;;;12.30;99.90;;;;;;494056;237;28844;-74
2021/05/23 09:53:19;;;;;;;4.70;1.50;;;12.20;99.90;;;;;;494138;237;28856;-74
2021/05/23 09:55:20;;;;;;;2.23;1.60;;;12.00;99.90;;;;;;494195;241;29325;-73
2021/05/23 09:57:21;;;;;;;3.00;1.70;;;11.60;99.90;;;;;;494191;241;29021;-74
2021/05/23 09:59:22;;;;;;;2.07;1.37;;;11.60;99.90;;;;;;494113;241;28297;-73
2021/05/23 10:01:24;;;;;;;3.50;1.57;;;11.90;99.90;;;;;;494115;239;28418;-74
2021/05/23 10:03:25;;;;;;;2.50;1.43;;;12.30;99.90;;;;;;494180;241;28268;-74
2021/05/23 10:05:26;;;;;;;4.10;1.43;;;12.20;99.90;;;;;;494073;241;28516;-76
2021/05/23 10:07:27;;;;;;;3.90;1.60;;;12.30;99.90;;;;;;494048;241;28442;-74
2021/05/23 10:09:29;;;;;;;3.03;1.40;;;12.40;99.90;;;;;;494179;241;28466;-73
2021/05/23 10:11:30;;;;;;;2.70;1.30;;;12.90;99.90;;;;;;494155;241;28497;-74
2021/05/23 10:13:31;;;;;;;2.60;1.47;;;13.10;99.90;;;;;;494145;241;28859;-73
2021/05/23 10:15:32;;;;;;;3.03;1.33;;;13.20;99.90;;;;;;494139;239;28540;-74
2021/05/23 10:17:34;;;;;;;3.00;1.60;;;13.20;99.90;;;;;;494126;241;30195;-73
2021/05/23 10:19:35;;;;;;;2.70;1.30;;;13.30;99.90;;;;;;494124;241;29347;-74
2021/05/23 10:21:36;;;;;;;2.70;1.60;;;13.30;99.90;;;;;;494109;241;29389;-74
2021/05/23 10:23:37;;;;;;;3.00;1.37;;;13.30;99.90;;;;;;494055;239;28926;-74
2021/05/23 10:25:39;;;;;;;3.13;1.67;;;13.50;99.90;;;;;;494057;241;28833;-74
2021/05/23 10:27:40;;;;;;;3.73;1.60;;;13.70;99.90;;;;;;494034;241;28799;-75
2021/05/23 10:29:41;;;;;;;3.73;1.73;;;13.80;99.90;;;;;;494065;241;28926;-74
2021/05/23 10:31:42;;;;;;;2.00;1.63;;;13.70;99.90;;;;;;494126;241;28951;-74
2021/05/23 10:33:44;;;;;;;2.50;1.40;;;13.20;99.90;;;;;;494098;241;28800;-75
2021/05/23 10:35:45;;;;;;;1.90;1.23;;;12.80;99.90;;;;;;494147;241;28840;-74
2021/05/23 10:37:46;;;;;;;3.93;1.60;;;12.50;99.90;;;;;;494065;241;28824;-74